sensor_id;sensor_type;location;lat;lon;timestamp;pressure;altitude;pressure_sealevel;temperature;humidity
56600;BME280;51832;48.152;11.530;2022-11-12T00:02:07;97014.66;;;10.76;65.21
56600;BME280;51832;48.152;11.530;2022-11-12T00:07:08;97014.50;;;10.78;64.85
56600;BME280;51832;48.152;11.530;2022-11-12T00:12:08;97013.75;;;10.69;64.74
56600;BME280;51832;48.152;11.530;2022-11-12T00:17:09;97012.72;;;10.49;64.11
56600;BME280;51832;48.152;11.530;2022-11-12T00:22:09;97012.78;;;10.11;64.90
56600;BME280;51832;48.152;11.530;2022-11-12T00:27:10;97017.59;;;9.85;66.08
56600;BME280;51832;48.152;11.530;2022-11-12T00:32:11;97012.63;;;9.90;64.70
56600;BME280;51832;48.152;11.530;2022-11-12T00:37:12;97005.94;;;10.02;64.85
56600;BME280;51832;48.152;11.530;2022-11-12T00:42:12;97002.75;;;9.92;63.90
56600;BME280;51832;48.152;11.530;2022-11-12T00:47:13;97008.31;;;9.59;64.70
56600;BME280;51832;48.152;11.530;2022-11-12T00:52:13;97013.66;;;9.51;64.48
56600;BME280;51832;48.152;11.530;2022-11-12T00:57:14;97006.84;;;9.57;63.73
56600;BME280;51832;48.152;11.530;2022-11-12T01:02:14;97001.16;;;9.53;63.92
56600;BME280;51832;48.152;11.530;2022-11-12T01:07:15;97006.06;;;9.34;64.52
56600;BME280;51832;48.152;11.530;2022-11-12T01:12:15;97001.91;;;9.39;63.56
56600;BME280;51832;48.152;11.530;2022-11-12T01:17:16;96998.41;;;9.47;64.60
56600;BME280;51832;48.152;11.530;2022-11-12T01:22:17;96995.84;;;9.39;64.74
56600;BME280;51832;48.152;11.530;2022-11-12T01:27:18;96982.50;;;9.25;64.70
56600;BME280;51832;48.152;11.530;2022-11-12T01:32:18;96985.56;;;9.06;64.60
56600;BME280;51832;48.152;11.530;2022-11-12T01:37:19;96977.69;;;9.06;65.11
56600;BME280;51832;48.152;11.530;2022-11-12T01:42:22;96988.91;;;8.69;66.58
56600;BME280;51832;48.152;11.530;2022-11-12T01:47:28;96976.16;;;8.89;65.47
56600;BME280;51832;48.152;11.530;2022-11-12T01:52:30;96978.59;;;8.90;66.52
56600;BME280;51832;48.152;11.530;2022-11-12T01:57:39;96974.16;;;8.68;65.57
56600;BME280;51832;48.152;11.530;2022-11-12T02:02:43;96962.09;;;8.51;66.97
56600;BME280;51832;48.152;11.530;2022-11-12T02:07:46;96957.44;;;8.61;67.48
56600;BME280;51832;48.152;11.530;2022-11-12T02:12:49;96958.63;;;8.59;67.82
56600;BME280;51832;48.152;11.530;2022-11-12T02:18:09;96956.59;;;8.69;66.42
56600;BME280;51832;48.152;11.530;2022-11-12T02:23:10;96953.72;;;8.55;67.26
56600;BME280;51832;48.152;11.530;2022-11-12T02:28:11;96954.47;;;8.72;67.55
56600;BME280;51832;48.152;11.530;2022-11-12T02:33:11;96954.47;;;8.72;66.35
56600;BME280;51832;48.152;11.530;2022-11-12T02:38:12;96945.41;;;8.75;66.03
56600;BME280;51832;48.152;11.530;2022-11-12T02:43:12;96942.97;;;8.73;66.66
56600;BME280;51832;48.152;11.530;2022-11-12T02:48:13;96942.19;;;8.34;68.16
56600;BME280;51832;48.152;11.530;2022-11-12T02:53:14;96942.31;;;8.40;67.27
56600;BME280;51832;48.152;11.530;2022-11-12T02:58:14;96943.63;;;8.44;67.94
56600;BME280;51832;48.152;11.530;2022-11-12T03:03:15;96939.75;;;8.32;67.85
56600;BME280;51832;48.152;11.530;2022-11-12T03:08:16;96944.47;;;8.37;67.53
56600;BME280;51832;48.152;11.530;2022-11-12T03:13:16;96954.88;;;8.53;68.42
56600;BME280;51832;48.152;11.530;2022-11-12T03:18:17;96957.41;;;8.46;68.44
56600;BME280;51832;48.152;11.530;2022-11-12T03:23:17;96960.72;;;8.32;69.26
56600;BME280;51832;48.152;11.530;2022-11-12T03:28:18;96957.50;;;8.53;67.16
56600;BME280;51832;48.152;11.530;2022-11-12T03:33:18;96970.03;;;8.43;68.19
56600;BME280;51832;48.152;11.530;2022-11-12T03:38:19;96968.16;;;8.51;68.01
56600;BME280;51832;48.152;11.530;2022-11-12T03:43:19;96965.28;;;8.30;67.72
56600;BME280;51832;48.152;11.530;2022-11-12T03:48:20;96971.66;;;8.44;68.77
56600;BME280;51832;48.152;11.530;2022-11-12T03:53:21;96968.69;;;8.47;67.85
56600;BME280;51832;48.152;11.530;2022-11-12T03:58:21;96973.06;;;8.15;69.05
56600;BME280;51832;48.152;11.530;2022-11-12T04:03:22;96973.00;;;8.24;69.03
56600;BME280;51832;48.152;11.530;2022-11-12T04:08:23;96965.59;;;7.88;69.80
56600;BME280;51832;48.152;11.530;2022-11-12T04:13:35;96975.75;;;7.83;68.85
56600;BME280;51832;48.152;11.530;2022-11-12T04:18:37;96978.16;;;8.01;70.00
56600;BME280;51832;48.152;11.530;2022-11-12T04:23:56;96974.09;;;7.82;69.44
56600;BME280;51832;48.152;11.530;2022-11-12T04:28:57;96976.06;;;7.80;70.24
56600;BME280;51832;48.152;11.530;2022-11-12T04:34:16;96975.56;;;8.01;69.19
56600;BME280;51832;48.152;11.530;2022-11-12T04:39:29;96974.41;;;7.95;69.62
56600;BME280;51832;48.152;11.530;2022-11-12T04:44:29;96972.84;;;7.78;69.81
56600;BME280;51832;48.152;11.530;2022-11-12T04:49:48;96972.84;;;7.62;70.46
56600;BME280;51832;48.152;11.530;2022-11-12T04:54:49;96983.81;;;7.00;71.44
56600;BME280;51832;48.152;11.530;2022-11-12T04:59:50;96977.13;;;7.46;71.96
56600;BME280;51832;48.152;11.530;2022-11-12T05:04:51;96985.13;;;7.29;72.67
56600;BME280;51832;48.152;11.530;2022-11-12T05:09:51;96991.84;;;7.39;71.11
56600;BME280;51832;48.152;11.530;2022-11-12T05:14:52;96983.16;;;7.06;72.40
56600;BME280;51832;48.152;11.530;2022-11-12T05:19:52;96986.28;;;7.34;71.56
56600;BME280;51832;48.152;11.530;2022-11-12T05:24:53;96983.50;;;7.36;71.52
56600;BME280;51832;48.152;11.530;2022-11-12T05:29:53;96980.41;;;7.48;72.03
56600;BME280;51832;48.152;11.530;2022-11-12T05:34:54;96976.41;;;8.40;73.52
56600;BME280;51832;48.152;11.530;2022-11-12T05:39:54;96979.31;;;9.30;78.08
56600;BME280;51832;48.152;11.530;2022-11-12T05:44:55;96982.50;;;9.63;72.27
56600;BME280;51832;48.152;11.530;2022-11-12T05:49:55;96980.38;;;9.21;63.10
56600;BME280;51832;48.152;11.530;2022-11-12T05:54:56;96984.72;;;8.52;64.51
56600;BME280;51832;48.152;11.530;2022-11-12T05:59:56;96996.38;;;8.49;68.60
56600;BME280;51832;48.152;11.530;2022-11-12T06:04:57;96998.41;;;8.23;69.15
56600;BME280;51832;48.152;11.530;2022-11-12T06:09:57;96989.00;;;7.81;66.64
56600;BME280;51832;48.152;11.530;2022-11-12T06:14:58;97007.53;;;7.88;69.74
56600;BME280;51832;48.152;11.530;2022-11-12T06:19:58;97010.66;;;7.75;69.88
56600;BME280;51832;48.152;11.530;2022-11-12T06:24:59;97020.47;;;7.57;71.26
56600;BME280;51832;48.152;11.530;2022-11-12T06:29:59;97009.81;;;7.67;70.75
56600;BME280;51832;48.152;11.530;2022-11-12T06:35:00;97005.25;;;7.77;69.88
56600;BME280;51832;48.152;11.530;2022-11-12T06:40:01;97007.38;;;7.73;71.01
56600;BME280;51832;48.152;11.530;2022-11-12T06:45:01;97012.13;;;7.78;70.25
56600;BME280;51832;48.152;11.530;2022-11-12T06:50:02;97018.34;;;7.85;70.73
56600;BME280;51832;48.152;11.530;2022-11-12T06:55:03;97011.31;;;7.69;70.91
56600;BME280;51832;48.152;11.530;2022-11-12T07:00:04;97010.97;;;7.72;70.99
56600;BME280;51832;48.152;11.530;2022-11-12T07:05:05;97014.09;;;7.68;72.20
56600;BME280;51832;48.152;11.530;2022-11-12T07:10:06;97022.09;;;7.26;71.93
56600;BME280;51832;48.152;11.530;2022-11-12T07:15:07;97016.41;;;7.46;72.57
56600;BME280;51832;48.152;11.530;2022-11-12T07:20:08;97019.63;;;7.00;74.11
56600;BME280;51832;48.152;11.530;2022-11-12T07:25:09;97022.84;;;6.69;73.76
56600;BME280;51832;48.152;11.530;2022-11-12T07:30:10;97021.28;;;7.09;73.90
56600;BME280;51832;48.152;11.530;2022-11-12T07:35:10;97017.34;;;7.13;73.00
56600;BME280;51832;48.152;11.530;2022-11-12T07:40:11;97019.34;;;7.43;74.00
56600;BME280;51832;48.152;11.530;2022-11-12T07:45:12;97016.53;;;7.69;71.46
56600;BME280;51832;48.152;11.530;2022-11-12T07:50:12;97007.69;;;7.87;73.30
56600;BME280;51832;48.152;11.530;2022-11-12T07:55:13;97016.53;;;7.85;71.77
56600;BME280;51832;48.152;11.530;2022-11-12T08:00:14;97014.88;;;8.01;71.20
56600;BME280;51832;48.152;11.530;2022-11-12T08:05:14;97013.69;;;8.19;71.02
56600;BME280;51832;48.152;11.530;2022-11-12T08:10:15;97009.88;;;8.30;71.77
56600;BME280;51832;48.152;11.530;2022-11-12T08:15:16;97014.56;;;8.51;71.75
56600;BME280;51832;48.152;11.530;2022-11-12T08:20:16;97019.81;;;8.59;70.58
56600;BME280;51832;48.152;11.530;2022-11-12T08:25:17;97025.72;;;8.53;70.16
56600;BME280;51832;48.152;11.530;2022-11-12T08:30:18;97036.81;;;8.71;69.87
56600;BME280;51832;48.152;11.530;2022-11-12T08:35:18;97029.66;;;8.49;71.03
56600;BME280;51832;48.152;11.530;2022-11-12T08:40:19;97027.47;;;8.69;70.52
56600;BME280;51832;48.152;11.530;2022-11-12T08:45:19;97026.13;;;8.73;70.95
56600;BME280;51832;48.152;11.530;2022-11-12T08:50:20;97031.59;;;8.94;69.43
56600;BME280;51832;48.152;11.530;2022-11-12T08:55:20;97024.13;;;9.06;70.33
56600;BME280;51832;48.152;11.530;2022-11-12T09:00:21;97020.28;;;9.16;70.67
56600;BME280;51832;48.152;11.530;2022-11-12T09:05:21;97017.31;;;9.19;70.19
56600;BME280;51832;48.152;11.530;2022-11-12T09:10:22;97025.66;;;9.46;68.94
56600;BME280;51832;48.152;11.530;2022-11-12T09:15:23;97029.44;;;9.43;68.63
56600;BME280;51832;48.152;11.530;2022-11-12T09:20:25;97025.00;;;9.29;68.53
56600;BME280;51832;48.152;11.530;2022-11-12T09:25:27;97032.38;;;9.48;68.23
56600;BME280;51832;48.152;11.530;2022-11-12T09:30:28;97031.03;;;9.90;68.73
56600;BME280;51832;48.152;11.530;2022-11-12T09:35:29;97034.56;;;9.82;67.24
56600;BME280;51832;48.152;11.530;2022-11-12T09:45:51;97044.78;;;9.77;66.69
56600;BME280;51832;48.152;11.530;2022-11-12T09:51:01;97047.72;;;10.20;67.20
56600;BME280;51832;48.152;11.530;2022-11-12T09:56:10;97042.69;;;10.10;65.72
56600;BME280;51832;48.152;11.530;2022-11-12T10:01:40;97039.84;;;10.35;65.85
56600;BME280;51832;48.152;11.530;2022-11-12T10:12:04;97030.25;;;10.92;64.71
56600;BME280;51832;48.152;11.530;2022-11-12T10:17:48;97021.34;;;10.93;65.98
56600;BME280;51832;48.152;11.530;2022-11-12T10:23:24;97020.94;;;11.54;63.20
56600;BME280;51832;48.152;11.530;2022-11-12T10:29:07;97019.41;;;11.59;62.15
56600;BME280;51832;48.152;11.530;2022-11-12T10:34:15;97005.00;;;11.83;62.54
56600;BME280;51832;48.152;11.530;2022-11-12T10:39:45;96995.28;;;11.84;63.01
56600;BME280;51832;48.152;11.530;2022-11-12T10:44:47;96989.09;;;11.98;62.70
56600;BME280;51832;48.152;11.530;2022-11-12T10:50:02;96978.00;;;12.09;62.93
56600;BME280;51832;48.152;11.530;2022-11-12T11:10:33;96973.44;;;13.46;59.38
56600;BME280;51832;48.152;11.530;2022-11-12T11:15:35;96952.06;;;13.54;58.90
56600;BME280;51832;48.152;11.530;2022-11-12T11:20:55;96948.41;;;13.75;59.39
56600;BME280;51832;48.152;11.530;2022-11-12T11:26:08;96945.72;;;13.09;60.44
56600;BME280;51832;48.152;11.530;2022-11-12T11:36:23;96941.53;;;12.73;61.44
56600;BME280;51832;48.152;11.530;2022-11-12T11:47:14;96929.50;;;13.38;60.52
56600;BME280;51832;48.152;11.530;2022-11-12T12:03:13;96911.59;;;13.40;60.82
56600;BME280;51832;48.152;11.530;2022-11-12T12:08:25;96918.69;;;13.73;61.34
56600;BME280;51832;48.152;11.530;2022-11-12T12:23:59;96911.16;;;13.70;59.42
56600;BME280;51832;48.152;11.530;2022-11-12T12:29:44;96914.19;;;13.86;58.82
56600;BME280;51832;48.152;11.530;2022-11-12T12:35:35;96903.88;;;13.45;59.52
56600;BME280;51832;48.152;11.530;2022-11-12T12:40:21;96899.41;;;13.66;59.11
56600;BME280;51832;48.152;11.530;2022-11-12T12:50:40;96883.31;;;13.41;60.60
56600;BME280;51832;48.152;11.530;2022-11-12T12:55:47;96871.69;;;13.75;58.93
56600;BME280;51832;48.152;11.530;2022-11-12T13:00:51;96865.50;;;14.07;58.27
56600;BME280;51832;48.152;11.530;2022-11-12T13:06:14;96857.69;;;13.55;60.20
56600;BME280;51832;48.152;11.530;2022-11-12T13:11:45;96861.72;;;12.91;61.69
56600;BME280;51832;48.152;11.530;2022-11-12T13:43:50;96843.59;;;13.87;59.98
56600;BME280;51832;48.152;11.530;2022-11-12T13:48:35;96844.31;;;14.14;59.04
56600;BME280;51832;48.152;11.530;2022-11-12T13:53:37;96835.59;;;14.07;59.24
56600;BME280;51832;48.152;11.530;2022-11-12T13:58:38;96829.78;;;13.78;59.85
56600;BME280;51832;48.152;11.530;2022-11-12T14:03:42;96825.38;;;13.20;62.01
56600;BME280;51832;48.152;11.530;2022-11-12T14:15:02;96836.13;;;13.44;61.30
56600;BME280;51832;48.152;11.530;2022-11-12T14:25:25;96808.69;;;13.06;61.79
56600;BME280;51832;48.152;11.530;2022-11-12T14:30:28;96800.97;;;13.04;64.11
56600;BME280;51832;48.152;11.530;2022-11-12T14:35:36;96807.69;;;13.07;63.00
56600;BME280;51832;48.152;11.530;2022-11-12T14:41:24;96791.63;;;12.69;64.27
56600;BME280;51832;48.152;11.530;2022-11-12T14:46:27;96783.38;;;12.11;66.42
56600;BME280;51832;48.152;11.530;2022-11-12T14:51:31;96790.81;;;11.53;67.61
56600;BME280;51832;48.152;11.530;2022-11-12T14:56:41;96791.63;;;11.95;67.59
56600;BME280;51832;48.152;11.530;2022-11-12T15:07:05;96786.47;;;12.28;66.28
56600;BME280;51832;48.152;11.530;2022-11-12T15:12:11;96781.91;;;11.95;67.14
56600;BME280;51832;48.152;11.530;2022-11-12T15:17:29;96773.56;;;11.92;67.44
56600;BME280;51832;48.152;11.530;2022-11-12T15:22:31;96773.47;;;11.72;68.28
56600;BME280;51832;48.152;11.530;2022-11-12T15:27:39;96770.81;;;11.31;70.07
56600;BME280;51832;48.152;11.530;2022-11-12T15:32:40;96765.13;;;11.27;69.99
56600;BME280;51832;48.152;11.530;2022-11-12T15:37:41;96776.19;;;11.16;70.66
56600;BME280;51832;48.152;11.530;2022-11-12T15:42:42;96782.38;;;11.02;71.26
56600;BME280;51832;48.152;11.530;2022-11-12T15:47:42;96771.09;;;10.38;74.01
56600;BME280;51832;48.152;11.530;2022-11-12T15:52:43;96772.13;;;10.86;71.80
56600;BME280;51832;48.152;11.530;2022-11-12T15:57:49;96768.75;;;10.71;73.60
56600;BME280;51832;48.152;11.530;2022-11-12T16:02:56;96775.41;;;10.45;74.28
56600;BME280;51832;48.152;11.530;2022-11-12T16:07:58;96774.09;;;10.35;75.63
56600;BME280;51832;48.152;11.530;2022-11-12T16:12:59;96770.84;;;10.32;75.47
56600;BME280;51832;48.152;11.530;2022-11-12T16:18:00;96763.47;;;10.21;76.07
56600;BME280;51832;48.152;11.530;2022-11-12T16:23:00;96763.16;;;10.80;73.36
56600;BME280;51832;48.152;11.530;2022-11-12T16:28:01;96765.91;;;10.65;74.34
56600;BME280;51832;48.152;11.530;2022-11-12T16:33:04;96773.53;;;10.60;73.66
56600;BME280;51832;48.152;11.530;2022-11-12T16:38:11;96760.03;;;10.70;74.24
56600;BME280;51832;48.152;11.530;2022-11-12T16:43:12;96763.97;;;11.09;72.57
56600;BME280;51832;48.152;11.530;2022-11-12T16:48:22;96769.03;;;11.10;72.47
56600;BME280;51832;48.152;11.530;2022-11-12T16:53:22;96766.66;;;10.87;72.63
56600;BME280;51832;48.152;11.530;2022-11-12T16:58:23;96768.72;;;10.64;72.98
56600;BME280;51832;48.152;11.530;2022-11-12T17:03:23;96764.97;;;10.16;75.28
56600;BME280;51832;48.152;11.530;2022-11-12T17:08:24;96757.28;;;10.78;73.29
56600;BME280;51832;48.152;11.530;2022-11-12T17:13:28;96769.41;;;10.51;74.85
56600;BME280;51832;48.152;11.530;2022-11-12T17:18:28;96763.88;;;10.46;75.46
56600;BME280;51832;48.152;11.530;2022-11-12T17:23:29;96757.25;;;10.14;75.88
56600;BME280;51832;48.152;11.530;2022-11-12T17:28:30;96759.25;;;10.48;75.67
56600;BME280;51832;48.152;11.530;2022-11-12T17:33:30;96761.94;;;10.33;76.44
56600;BME280;51832;48.152;11.530;2022-11-12T17:38:31;96767.16;;;10.48;75.26
56600;BME280;51832;48.152;11.530;2022-11-12T17:43:32;96761.25;;;10.46;74.90
56600;BME280;51832;48.152;11.530;2022-11-12T17:48:33;96751.78;;;10.73;73.74
56600;BME280;51832;48.152;11.530;2022-11-12T17:53:35;96749.22;;;10.58;74.84
56600;BME280;51832;48.152;11.530;2022-11-12T17:58:37;96738.97;;;10.91;73.60
56600;BME280;51832;48.152;11.530;2022-11-12T18:03:39;96732.63;;;10.86;73.79
56600;BME280;51832;48.152;11.530;2022-11-12T18:08:40;96725.78;;;10.63;73.66
56600;BME280;51832;48.152;11.530;2022-11-12T18:13:41;96726.25;;;10.46;75.33
56600;BME280;51832;48.152;11.530;2022-11-12T18:18:42;96726.44;;;10.44;74.74
56600;BME280;51832;48.152;11.530;2022-11-12T18:23:43;96718.88;;;10.62;74.09
56600;BME280;51832;48.152;11.530;2022-11-12T18:28:50;96721.53;;;10.62;73.25
56600;BME280;51832;48.152;11.530;2022-11-12T18:33:51;96723.16;;;10.63;73.88
56600;BME280;51832;48.152;11.530;2022-11-12T18:38:52;96722.50;;;10.33;72.24
56600;BME280;51832;48.152;11.530;2022-11-12T18:43:54;96726.34;;;10.16;74.61
56600;BME280;51832;48.152;11.530;2022-11-12T18:48:55;96715.19;;;10.14;74.96
56600;BME280;51832;48.152;11.530;2022-11-12T18:53:56;96717.94;;;9.19;78.09
56600;BME280;51832;48.152;11.530;2022-11-12T18:58:56;96708.03;;;10.23;74.74
56600;BME280;51832;48.152;11.530;2022-11-12T19:03:56;96711.56;;;9.94;74.56
56600;BME280;51832;48.152;11.530;2022-11-12T19:08:58;96709.28;;;9.91;74.91
56600;BME280;51832;48.152;11.530;2022-11-12T19:13:59;96697.09;;;10.26;73.96
56600;BME280;51832;48.152;11.530;2022-11-12T19:19:00;96694.81;;;10.38;73.41
56600;BME280;51832;48.152;11.530;2022-11-12T19:24:00;96693.47;;;10.06;73.45
56600;BME280;51832;48.152;11.530;2022-11-12T19:29:01;96685.84;;;10.32;73.12
56600;BME280;51832;48.152;11.530;2022-11-12T19:34:01;96684.38;;;9.87;75.67
56600;BME280;51832;48.152;11.530;2022-11-12T19:39:01;96678.94;;;10.31;73.77
56600;BME280;51832;48.152;11.530;2022-11-12T19:44:02;96661.59;;;10.15;74.48
56600;BME280;51832;48.152;11.530;2022-11-12T19:49:02;96672.81;;;10.03;74.38
56600;BME280;51832;48.152;11.530;2022-11-12T19:54:03;96669.09;;;9.76;76.42
56600;BME280;51832;48.152;11.530;2022-11-12T19:59:03;96650.72;;;10.18;73.97
56600;BME280;51832;48.152;11.530;2022-11-12T20:04:04;96665.13;;;10.22;74.63
56600;BME280;51832;48.152;11.530;2022-11-12T20:09:04;96656.84;;;10.25;74.22
56600;BME280;51832;48.152;11.530;2022-11-12T20:14:05;96655.47;;;9.66;76.01
56600;BME280;51832;48.152;11.530;2022-11-12T20:19:05;96645.56;;;10.10;74.41
56600;BME280;51832;48.152;11.530;2022-11-12T20:24:08;96648.38;;;10.30;73.71
56600;BME280;51832;48.152;11.530;2022-11-12T20:29:08;96637.84;;;10.51;73.73
56600;BME280;51832;48.152;11.530;2022-11-12T20:34:10;96635.88;;;10.11;74.47
56600;BME280;51832;48.152;11.530;2022-11-12T20:39:11;96642.03;;;9.96;75.08
56600;BME280;51832;48.152;11.530;2022-11-12T20:44:12;96630.22;;;10.14;74.89
56600;BME280;51832;48.152;11.530;2022-11-12T20:49:12;96625.88;;;10.49;73.03
56600;BME280;51832;48.152;11.530;2022-11-12T20:54:13;96629.78;;;10.31;73.78
56600;BME280;51832;48.152;11.530;2022-11-12T20:59:13;96623.06;;;10.22;74.68
56600;BME280;51832;48.152;11.530;2022-11-12T21:04:14;96624.38;;;10.40;74.06
56600;BME280;51832;48.152;11.530;2022-11-12T21:09:15;96622.03;;;10.51;73.75
56600;BME280;51832;48.152;11.530;2022-11-12T21:14:15;96613.34;;;10.51;73.50
56600;BME280;51832;48.152;11.530;2022-11-12T21:19:16;96605.53;;;10.36;72.83
56600;BME280;51832;48.152;11.530;2022-11-12T21:24:16;96613.03;;;10.39;73.92
56600;BME280;51832;48.152;11.530;2022-11-12T21:29:16;96600.09;;;10.38;73.59
56600;BME280;51832;48.152;11.530;2022-11-12T21:34:17;96599.28;;;10.37;73.21
56600;BME280;51832;48.152;11.530;2022-11-12T21:39:17;96594.97;;;10.29;73.48
56600;BME280;51832;48.152;11.530;2022-11-12T21:44:18;96585.66;;;10.06;74.55
56600;BME280;51832;48.152;11.530;2022-11-12T21:49:18;96581.47;;;10.11;75.02
56600;BME280;51832;48.152;11.530;2022-11-12T21:54:19;96578.97;;;10.24;73.91
56600;BME280;51832;48.152;11.530;2022-11-12T21:59:19;96583.25;;;10.32;74.42
56600;BME280;51832;48.152;11.530;2022-11-12T22:04:19;96581.09;;;9.93;74.98
56600;BME280;51832;48.152;11.530;2022-11-12T22:09:20;96584.78;;;9.98;74.92
56600;BME280;51832;48.152;11.530;2022-11-12T22:14:20;96572.78;;;10.17;73.86
56600;BME280;51832;48.152;11.530;2022-11-12T22:19:21;96576.59;;;10.15;73.15
56600;BME280;51832;48.152;11.530;2022-11-12T22:24:22;96572.06;;;10.23;71.94
56600;BME280;51832;48.152;11.530;2022-11-12T22:29:23;96569.50;;;9.87;72.49
56600;BME280;51832;48.152;11.530;2022-11-12T22:34:23;96571.09;;;9.60;72.68
56600;BME280;51832;48.152;11.530;2022-11-12T22:39:24;96568.25;;;9.55;74.27
56600;BME280;51832;48.152;11.530;2022-11-12T22:44:24;96550.75;;;9.90;71.99
56600;BME280;51832;48.152;11.530;2022-11-12T22:49:25;96550.06;;;9.60;72.40
56600;BME280;51832;48.152;11.530;2022-11-12T22:54:25;96542.44;;;9.44;72.66
56600;BME280;51832;48.152;11.530;2022-11-12T22:59:26;96549.59;;;9.50;72.29
56600;BME280;51832;48.152;11.530;2022-11-12T23:04:26;96536.63;;;9.70;71.33
56600;BME280;51832;48.152;11.530;2022-11-12T23:09:26;96543.28;;;9.66;71.83
56600;BME280;51832;48.152;11.530;2022-11-12T23:14:27;96530.38;;;9.50;72.52
56600;BME280;51832;48.152;11.530;2022-11-12T23:19:27;96528.63;;;9.36;73.44
56600;BME280;51832;48.152;11.530;2022-11-12T23:24:28;96525.50;;;9.68;70.47
56600;BME280;51832;48.152;11.530;2022-11-12T23:29:28;96523.44;;;9.21;72.65
56600;BME280;51832;48.152;11.530;2022-11-12T23:34:29;96520.06;;;9.27;73.13
56600;BME280;51832;48.152;11.530;2022-11-12T23:39:29;96514.13;;;9.40;72.50
56600;BME280;51832;48.152;11.530;2022-11-12T23:44:30;96506.19;;;9.12;73.77
56600;BME280;51832;48.152;11.530;2022-11-12T23:49:30;96499.94;;;9.13;73.55
56600;BME280;51832;48.152;11.530;2022-11-12T23:54:30;96490.72;;;9.45;72.08
56600;BME280;51832;48.152;11.530;2022-11-12T23:59:31;96481.91;;;9.31;71.94
